Kewanee, IL

10:30 PM CDT on August 27, 2015 (GMT -0500)
Rockwell St. | | Change Station
CLOSE
Current Station
Personal Weather Station
Location: Kewanee, IL
Elevation: 858 ft
Nearby Weather Stations

Elev 858 ft 41.24 °N, 89.93 °W | Updated 24 seconds ago

Clear
Clear
61.9 °F
Feels Like 61.9 °F
N
2.7
Wind Variable Wind from ESE
Gusts 5.3 mph

Today
High -- | Low -- °F
--% Chance of Precip.
Yesterday
High -- | Low -- °F
Precip. -- in
6:20 AM 7:40 PM
Waxing Gibbous, 96% visible
Pressure 30.11 in
Visibility 10.0 miles
Clouds Clear
Dew Point 57 °F
Humidity 85%
Rainfall 0.07 in
Snow Depth Not available.
UV 0 out of 12
Pollen 9.80 out of 12
Air Quality Not available.
Flu Activity Not available.
METAR KGBG 280315Z AUTO 10003KT 10SM CLR 16/15 A3011 RMK AO2 T01640145
Pressure 30.11 in
Visibility 10.0 miles
Clouds Clear
Dew Point 57 °F
Humidity 85%
Rainfall 0.07 in
Snow Depth Not available.
UV 0 out of 12
Pollen 9.80 out of 12
Air Quality Not available.
Flu Activity Not available.
METAR KGBG 280315Z AUTO 10003KT 10SM CLR 16/15 A3011 RMK AO2 T01640145

10-Day Weather Forecast

×

Almanac

Astronomy

Aug. 27, 2015 Rise Set
Actual Time
Civil Twilight
Nautical Twilight
Astronomical Twilight
Moon
Length of Visible Light
Length of Day
Tomorrow will be .
, % of the Moon is Illuminated

Today's Extremes

State Highs State Lows

Community

WunderPhotos

Upload Photos

1,850,317 photos uploaded!

WunderBlogs® & News

Nearby

Air Quality

  Air Quality AQ Index Pollutant
Not available.

Snow Depth

Station Depth Elevation

Earthquake Activity

City Distance Mag. Time & Date
Minimum magnitude displayed is 2.5.

Coastal Water Temperatures

Place Temperature

Stations

Nearby Weather Stations

Station Location Temp. Windchill Dew Point Humidity Wind Precip. Elev Updated Type